Time,TemperatureF,DewpointF,PressureIn,WindDirection,WindDirectionDegrees,WindSpeedMPH,WindSpeedGustMPH,Humidity,HourlyPrecipIn,Conditions,Clouds,dailyrainin,SoftwareType,DateUTC
2013-04-17 00:29:00,60.0,57.1,26.97,South,180,0.0,0.0,90,0.00,,,-99.99,VWS V12.07,2013-04-17 04:29:00,
2013-04-17 00:59:00,59.7,57.1,26.96,ESE,108,0.0,0.0,91,0.00,,,-99.99,VWS V12.07,2013-04-17 04:59:00,
2013-04-17 01:29:00,58.3,56.9,26.96,ESE,107,0.0,0.0,95,0.00,,,-99.99,VWS V12.07,2013-04-17 05:29:00,
2013-04-17 01:59:00,59.0,57.0,26.96,SE,136,0.0,0.0,93,0.00,,,-99.99,VWS V12.07,2013-04-17 05:59:00,
2013-04-17 02:29:00,58.0,56.6,26.95,SSE,162,0.0,0.0,95,0.00,,,-99.99,VWS V12.07,2013-04-17 06:29:00,
2013-04-17 02:59:00,58.5,57.1,26.95,SSE,165,0.0,0.0,95,0.00,,,-99.99,VWS V12.07,2013-04-17 06:59:00,
2013-04-17 03:29:00,58.8,57.4,26.95,SE,138,0.0,0.0,95,0.00,,,-99.99,VWS V12.07,2013-04-17 07:29:00,
2013-04-17 03:59:00,59.3,57.6,26.95,South,172,0.0,0.0,94,0.00,,,-99.99,VWS V12.07,2013-04-17 07:59:00,
2013-04-17 04:29:00,59.4,57.4,26.96,SSE,161,0.0,0.0,93,0.00,,,-99.99,VWS V12.07,2013-04-17 08:29:00,
2013-04-17 04:59:00,57.4,56.0,26.98,WNW,283,0.0,0.0,95,0.01,,,-99.99,VWS V12.07,2013-04-17 08:59:00,
2013-04-17 05:29:00,57.1,55.7,26.96,SW,231,0.0,0.0,95,0.01,,,-99.99,VWS V12.07,2013-04-17 09:29:00,
2013-04-17 05:59:00,57.6,55.6,26.95,SSW,208,0.0,0.0,93,0.00,,,-99.99,VWS V12.07,2013-04-17 09:59:00,
2013-04-17 06:29:00,55.8,55.8,26.96,WNW,302,0.0,0.0,100,0.04,,,-99.99,VWS V12.07,2013-04-17 10:29:00,
2013-04-17 06:59:00,55.2,55.2,26.97,West,276,0.0,0.0,100,0.04,,,-99.99,VWS V12.07,2013-04-17 10:59:00,
2013-04-17 07:29:00,56.0,56.0,26.98,NW,324,0.0,0.0,100,0.00,,,-99.99,VWS V12.07,2013-04-17 11:29:00,
2013-04-17 07:59:00,55.4,55.4,26.97,WSW,248,0.0,0.0,100,0.00,,,-99.99,VWS V12.07,2013-04-17 11:59:00,
2013-04-17 08:29:00,57.3,57.3,26.97,South,177,0.0,0.0,100,0.00,,,-99.99,VWS V12.07,2013-04-17 12:29:00,
2013-04-17 08:59:00,58.5,58.5,26.97,South,177,0.0,0.0,100,0.00,,,-99.99,VWS V12.07,2013-04-17 12:59:00,
2013-04-17 09:29:00,58.5,58.5,26.97,South,187,0.0,0.0,100,0.00,,,-99.99,VWS V12.07,2013-04-17 13:29:00,
2013-04-17 09:59:00,59.1,58.5,26.98,SW,223,0.0,0.0,98,0.00,,,-99.99,VWS V12.07,2013-04-17 13:59:00,
2013-04-17 10:29:00,58.5,58.2,26.99,SW,223,0.0,0.0,99,0.02,,,-99.99,VWS V12.07,2013-04-17 14:29:00,
2013-04-17 10:59:00,56.7,56.7,26.99,SW,220,0.0,0.0,100,0.07,,,-99.99,VWS V12.07,2013-04-17 14:59:00,
2013-04-17 11:29:00,56.5,56.5,26.99,SW,214,0.0,4.0,100,0.13,,,-99.99,VWS V12.07,2013-04-17 15:29:00,
2013-04-17 11:59:00,57.6,57.6,26.99,SW,222,4.0,5.0,100,0.10,,,-99.99,VWS V12.07,2013-04-17 15:59:00,
2013-04-17 12:29:00,58.5,58.5,26.99,South,181,3.0,4.0,100,0.02,,,-99.99,VWS V12.07,2013-04-17 16:29:00,
2013-04-17 12:59:00,60.6,60.6,26.99,South,181,2.0,6.0,100,0.00,,,-99.99,VWS V12.07,2013-04-17 16:59:00,
2013-04-17 13:29:00,60.8,60.8,26.98,SSW,204,8.0,15.0,100,0.00,,,-99.99,VWS V12.07,2013-04-17 17:29:00,
2013-04-17 13:59:00,59.8,59.2,26.98,SW,215,2.0,7.0,98,0.00,,,-99.99,VWS V12.07,2013-04-17 17:59:00,
2013-04-17 14:29:00,60.0,59.7,26.97,SSW,203,5.0,6.0,99,0.00,,,-99.99,VWS V12.07,2013-04-17 18:29:00,
2013-04-17 14:59:00,60.2,58.8,26.94,South,190,8.0,10.0,95,0.00,,,-99.99,VWS V12.07,2013-04-17 18:59:00,
2013-04-17 15:29:00,59.7,59.4,26.92,South,174,7.0,15.0,99,0.00,,,-99.99,VWS V12.07,2013-04-17 19:29:00,
2013-04-17 15:59:00,62.1,59.1,26.90,SSE,152,11.0,24.0,90,0.00,,,-99.99,VWS V12.07,2013-04-17 19:59:00,
2013-04-17 16:29:00,64.0,58.1,26.89,SSE,153,0.0,0.0,81,0.00,,,-99.99,VWS V12.07,2013-04-17 20:29:00,
2013-04-17 16:59:00,64.7,58.0,26.90,SSE,153,0.0,0.0,79,0.00,,,-99.99,VWS V12.07,2013-04-17 20:59:00,
2013-04-17 17:29:00,64.5,58.2,26.90,North,349,0.0,0.0,80,0.00,,,-99.99,VWS V12.07,2013-04-17 21:29:00,
2013-04-17 17:59:00,64.9,58.6,26.91,North,349,0.0,0.0,80,0.00,,,-99.99,VWS V12.07,2013-04-17 21:59:00,
2013-04-17 18:29:00,64.5,58.9,26.90,NE,49,0.0,0.0,82,0.00,,,-99.99,VWS V12.07,2013-04-17 22:29:00,
2013-04-17 18:59:00,63.5,59.2,26.90,ENE,62,0.0,0.0,86,0.00,,,-99.99,VWS V12.07,2013-04-17 22:59:00,
2013-04-17 19:29:00,62.7,58.8,26.91,ENE,62,0.0,0.0,87,0.00,,,-99.99,VWS V12.07,2013-04-17 23:29:00,
2013-04-17 19:59:00,61.6,58.6,26.91,ENE,70,0.0,0.0,90,0.00,,,-99.99,VWS V12.07,2013-04-17 23:59:00,
2013-04-17 20:29:00,60.5,58.8,26.91,East,80,0.0,0.0,94,0.00,,,-99.99,VWS V12.07,2013-04-18 00:29:00,
2013-04-17 20:59:00,59.7,58.8,26.92,ENE,76,0.0,0.0,97,0.00,,,-99.99,VWS V12.07,2013-04-18 00:59:00,
2013-04-17 21:29:00,59.3,58.5,26.92,ENE,75,0.0,0.0,97,0.00,,,-99.99,VWS V12.07,2013-04-18 01:29:00,
2013-04-17 21:59:00,58.4,57.6,26.92,ENE,75,0.0,0.0,97,0.00,,,-99.99,VWS V12.07,2013-04-18 01:59:00,
2013-04-17 22:29:00,57.7,57.1,26.92,East,87,0.0,0.0,98,0.00,,,-99.99,VWS V12.07,2013-04-18 02:29:00,
2013-04-17 22:59:00,55.8,55.5,26.91,East,82,0.0,0.0,99,0.00,,,-99.99,VWS V12.07,2013-04-18 02:59:00,
2013-04-17 23:29:00,55.3,55.3,26.91,East,82,0.0,0.0,100,0.00,,,-99.99,VWS V12.07,2013-04-18 03:29:00,
2013-04-17 23:59:00,56.4,56.4,26.89,East,82,0.0,0.0,100,0.00,,,-99.99,VWS V12.07,2013-04-18 03:59:00,